createdAt,value
2018-02-19T00:04:28.705Z,95
2018-02-19T00:09:28.508Z,95.5
2018-02-19T00:14:28.616Z,96.1
2018-02-19T00:19:28.619Z,96.1
2018-02-19T00:24:28.613Z,96.2
2018-02-19T00:29:28.635Z,96
2018-02-19T00:34:28.632Z,96.2
2018-02-19T00:39:28.645Z,96.4
2018-02-19T00:44:28.635Z,96.4
2018-02-19T00:49:28.637Z,96.2
2018-02-19T00:54:28.623Z,96.3
2018-02-19T00:59:28.648Z,96
2018-02-19T01:04:28.661Z,96.1
2018-02-19T01:09:28.681Z,96.5
2018-02-19T01:14:28.668Z,96.2
2018-02-19T01:19:28.691Z,95.9
2018-02-19T01:24:28.674Z,95.2
2018-02-19T01:29:28.684Z,95.3
2018-02-19T01:34:28.684Z,94.8
2018-02-19T01:39:28.688Z,94.7
2018-02-19T01:44:28.691Z,94.4
2018-02-19T01:49:28.687Z,94
2018-02-19T01:54:28.713Z,93.9
2018-02-19T01:59:28.653Z,94
2018-02-19T02:04:28.698Z,93.9
2018-02-19T02:09:28.695Z,93.8
2018-02-19T02:14:28.690Z,93.7
2018-02-19T02:19:28.733Z,93.2
2018-02-19T02:24:28.705Z,93.3
2018-02-19T02:29:28.715Z,93.4
2018-02-19T02:34:28.735Z,93.2
2018-02-19T02:39:28.735Z,93.5
2018-02-19T02:44:28.802Z,93.6
2018-02-19T02:49:28.792Z,93.2
2018-02-19T02:54:28.802Z,92.9
2018-02-19T02:59:28.793Z,92.3
2018-02-19T03:04:28.806Z,92.4
2018-02-19T03:09:28.812Z,92.2
2018-02-19T03:14:28.747Z,92
2018-02-19T03:19:28.807Z,91.9
2018-02-19T03:24:28.812Z,92.1
2018-02-19T03:29:28.798Z,92
2018-02-19T03:34:28.807Z,92.3
2018-02-19T03:39:28.835Z,92.5
2018-02-19T03:44:28.815Z,92.2
2018-02-19T03:49:28.835Z,92
2018-02-19T03:54:28.826Z,91.9
2018-02-19T03:59:28.777Z,92
2018-02-19T04:04:29.014Z,92.2
2018-02-19T04:09:29.018Z,92.6
2018-02-19T04:14:29.016Z,92.6
2018-02-19T04:19:33.191Z,92.9
2018-02-19T04:24:38.471Z,92.8
2018-02-19T04:29:33.345Z,92.5
2018-02-19T04:34:33.392Z,92.7
2018-02-19T04:39:33.524Z,92.6
2018-02-19T04:44:33.395Z,92.4
2018-02-19T04:49:33.424Z,92.6
2018-02-19T04:54:33.637Z,92.4
2018-02-19T04:59:33.427Z,93
2018-02-19T05:04:33.421Z,92.5
2018-02-19T05:09:33.422Z,92
2018-02-19T05:14:33.391Z,92.2
2018-02-19T05:19:33.421Z,92.4
2018-02-19T05:24:33.429Z,92.4
2018-02-19T05:29:33.568Z,92.8
2018-02-19T05:34:33.447Z,93.1
2018-02-19T05:39:33.412Z,93
2018-02-19T05:44:33.446Z,93
2018-02-19T05:49:33.445Z,93.8
2018-02-19T05:54:33.441Z,93.6
2018-02-19T05:59:33.659Z,93.8
2018-02-19T06:04:33.453Z,93.7
2018-02-19T06:09:33.447Z,93.8
2018-02-19T06:14:33.448Z,93.9
2018-02-19T06:19:33.455Z,93.5
2018-02-19T06:24:33.474Z,93.3
2018-02-19T06:29:33.457Z,92.7
2018-02-19T06:34:33.465Z,92.5
2018-02-19T06:39:33.485Z,92.7
2018-02-19T06:44:33.491Z,91.6
2018-02-19T06:49:33.477Z,91.5
2018-02-19T06:54:33.476Z,91.6
2018-02-19T06:59:33.502Z,90.8
2018-02-19T07:04:33.475Z,90.3
2018-02-19T07:09:33.489Z,89.9
2018-02-19T07:14:33.490Z,88.6
2018-02-19T07:19:33.665Z,88.7
2018-02-19T07:24:33.484Z,88.2
2018-02-19T07:29:33.513Z,86.8
2018-02-19T07:34:33.488Z,87.2
2018-02-19T07:39:33.509Z,86.2
2018-02-19T07:44:33.510Z,86.4
2018-02-19T07:49:33.455Z,84.9
2018-02-19T07:54:33.514Z,84.1
2018-02-19T07:59:33.519Z,83
2018-02-19T08:04:33.519Z,83.6
2018-02-19T08:09:33.518Z,83.1
2018-02-19T08:14:33.528Z,82.6
2018-02-19T08:19:33.525Z,82.1
2018-02-19T08:24:33.546Z,80.9
2018-02-19T08:29:33.551Z,82
2018-02-19T08:34:33.602Z,82
2018-02-19T08:39:33.548Z,81.2
2018-02-19T08:44:33.680Z,81.3
2018-02-19T08:49:33.667Z,80.6
2018-02-19T08:54:33.727Z,81.1
2018-02-19T08:59:33.736Z,80.1
2018-02-19T09:04:33.675Z,80
2018-02-19T09:09:33.629Z,78.7
2018-02-19T09:14:33.674Z,79
2018-02-19T09:19:38.148Z,78.5
2018-02-19T09:24:43.163Z,78.3
2018-02-19T09:29:48.497Z,77.9
2018-02-19T09:34:43.331Z,76.2
2018-02-19T09:39:43.470Z,76.7
2018-02-19T09:44:43.169Z,77.1
2018-02-19T09:49:43.186Z,76.2
2018-02-19T09:54:43.338Z,75
2018-02-19T09:59:43.389Z,74.6
2018-02-19T10:04:43.173Z,74.5
2018-02-19T10:09:43.191Z,74
2018-02-19T10:14:43.375Z,73.7
2018-02-19T10:19:43.175Z,74.3
2018-02-19T10:24:43.188Z,74.6
2018-02-19T10:29:43.404Z,74.5
2018-02-19T10:34:43.345Z,73.1
2018-02-19T10:39:43.338Z,73.4
2018-02-19T10:44:43.372Z,74.3
2018-02-19T10:49:43.425Z,73.5
2018-02-19T10:54:43.241Z,73.7
2018-02-19T10:59:43.237Z,74.3
2018-02-19T11:04:43.214Z,74
2018-02-19T11:09:43.449Z,73
2018-02-19T11:14:43.227Z,73.8
2018-02-19T11:19:43.398Z,73.6
2018-02-19T11:24:43.246Z,73.5
2018-02-19T11:29:43.384Z,74.1
2018-02-19T11:34:43.227Z,73.6
2018-02-19T11:39:43.441Z,73.9
2018-02-19T11:44:43.219Z,73.6
2018-02-19T11:49:43.224Z,73.8
2018-02-19T11:54:43.531Z,74
2018-02-19T11:59:43.201Z,73.6
2018-02-19T12:04:43.261Z,73.5
2018-02-19T12:09:43.484Z,73.2
2018-02-19T12:14:43.287Z,73.8
2018-02-19T12:19:43.265Z,74.2
2018-02-19T12:24:43.255Z,74
2018-02-19T12:29:43.504Z,73.6
2018-02-19T12:34:43.397Z,74.2
2018-02-19T12:39:43.304Z,74.1
2018-02-19T12:44:43.481Z,73.9
2018-02-19T12:49:43.278Z,75.6
2018-02-19T12:54:43.429Z,75
2018-02-19T12:59:43.483Z,75.5
2018-02-19T13:04:43.279Z,74.9
2018-02-19T13:09:43.429Z,74.9
2018-02-19T13:14:43.275Z,75.5
2018-02-19T13:19:43.305Z,75.7
2018-02-19T13:24:43.660Z,76.1
2018-02-19T13:29:43.449Z,76.4
2018-02-19T13:34:53.058Z,77.1
2018-02-19T13:40:04.759Z,77.7
2018-02-19T13:44:54.645Z,77.4
2018-02-19T13:49:54.510Z,77.9
2018-02-19T13:54:54.701Z,78
2018-02-19T13:59:54.746Z,78.4
2018-02-19T14:04:54.493Z,77.8
2018-02-19T14:09:54.516Z,78.9
2018-02-19T14:14:54.605Z,78.1
2018-02-19T14:19:55.552Z,79
2018-02-19T14:25:01.391Z,79
2018-02-19T14:29:55.254Z,79.6
2018-02-19T14:34:55.481Z,78.9
2018-02-19T14:39:55.301Z,79.5
2018-02-19T14:44:55.416Z,80.1
2018-02-19T14:49:55.284Z,79.9
2018-02-19T14:54:55.231Z,81.2
2018-02-19T14:59:55.465Z,81.2
2018-02-19T15:04:55.260Z,81.5
2018-02-19T15:09:55.293Z,81.7
2018-02-19T15:14:55.438Z,81.8
2018-02-19T15:19:55.288Z,82.5
2018-02-19T15:24:55.435Z,81.9
2018-02-19T15:29:55.304Z,81.9
2018-02-19T15:34:55.308Z,82.3
2018-02-19T15:39:55.326Z,82.6
2018-02-19T15:44:55.312Z,82.7
2018-02-19T15:49:55.309Z,82.9
2018-02-19T15:54:55.300Z,83.5
2018-02-19T15:59:55.321Z,83.2
2018-02-19T16:04:55.312Z,84.4
2018-02-19T16:09:55.331Z,84.5
2018-02-19T16:14:55.319Z,84
2018-02-19T16:19:55.331Z,83.8
2018-02-19T16:24:55.327Z,83.9
2018-02-19T16:29:55.564Z,84.9
2018-02-19T16:34:55.315Z,84.9
2018-02-19T16:39:55.577Z,84.8
2018-02-19T16:44:55.583Z,83.8
2018-02-19T16:49:55.465Z,85
2018-02-19T16:54:55.325Z,83.5
2018-02-19T16:59:55.287Z,84.2
2018-02-19T17:04:55.366Z,83.8
2018-02-19T17:09:55.351Z,84.1
2018-02-19T17:14:55.745Z,84.7
2018-02-19T17:19:55.366Z,84.7
2018-02-19T17:24:55.394Z,84.6
2018-02-19T17:29:55.374Z,85
2018-02-19T17:34:55.575Z,85.4
2018-02-19T17:39:55.507Z,86.6
2018-02-19T17:44:55.371Z,86.4
2018-02-19T17:49:55.367Z,86.5
2018-02-19T17:54:55.506Z,85.4
2018-02-19T17:59:55.538Z,84.8
2018-02-19T18:04:55.583Z,85
2018-02-19T18:09:55.391Z,85.7
2018-02-19T18:14:55.548Z,85.5
2018-02-19T18:19:55.589Z,85.2
2018-02-19T18:24:55.627Z,85.6
2018-02-19T18:29:55.532Z,85.4
2018-02-19T18:34:55.509Z,85.5
2018-02-19T18:39:55.402Z,85.5
2018-02-19T18:44:55.533Z,86
2018-02-19T18:49:55.597Z,85.9
2018-02-19T18:54:55.593Z,85.6
2018-02-19T18:59:55.426Z,88.8
2018-02-19T19:04:55.410Z,85.1
2018-02-19T19:09:55.414Z,85.5
2018-02-19T19:14:55.648Z,84.2
2018-02-19T19:19:55.418Z,85
2018-02-19T19:24:55.624Z,84.7
2018-02-19T19:29:55.430Z,83.8
2018-02-19T19:35:00.611Z,84.9
2018-02-19T19:40:05.422Z,85.3
2018-02-19T19:45:00.342Z,84.8
2018-02-19T19:50:00.359Z,84.7
2018-02-19T19:55:00.349Z,85.1
2018-02-19T20:00:00.747Z,84.7
2018-02-19T20:05:00.476Z,85.2
2018-02-19T20:10:00.497Z,85.2
2018-02-19T20:15:00.337Z,85.2
2018-02-19T20:20:00.472Z,85
2018-02-19T20:25:00.495Z,84.8
2018-02-19T20:30:00.470Z,85.2
2018-02-19T20:35:00.468Z,85.2
2018-02-19T20:40:00.481Z,85
2018-02-19T20:45:00.379Z,85
2018-02-19T20:50:00.478Z,84.7
2018-02-19T20:55:00.470Z,84.8
2018-02-19T21:00:00.390Z,84
2018-02-19T21:05:00.492Z,83.9
2018-02-19T21:10:00.373Z,84.2
2018-02-19T21:15:00.383Z,84.6
2018-02-19T21:20:00.390Z,84.7
2018-02-19T21:25:00.386Z,84.5
2018-02-19T21:30:00.473Z,84.9
2018-02-19T21:35:00.395Z,85.1
2018-02-19T21:40:00.351Z,85
2018-02-19T21:45:00.349Z,85.6
2018-02-19T21:50:00.391Z,85.4
2018-02-19T21:55:00.416Z,85.1
2018-02-19T22:00:00.400Z,85.2
2018-02-19T22:05:00.401Z,85.7
2018-02-19T22:10:00.418Z,85.3
2018-02-19T22:15:01.956Z,85.6
2018-02-19T22:20:00.401Z,86.2
2018-02-19T22:25:00.519Z,86.2
2018-02-19T22:30:00.541Z,86.1
2018-02-19T22:35:00.533Z,86.1
2018-02-19T22:40:00.429Z,85.9
2018-02-19T22:45:00.427Z,85.9
2018-02-19T22:50:00.642Z,85.6
2018-02-19T22:55:00.537Z,85.7
2018-02-19T23:00:00.427Z,85.3
2018-02-19T23:05:00.583Z,86.1
2018-02-19T23:10:00.536Z,85.3
2018-02-19T23:15:00.715Z,85.8
2018-02-19T23:20:00.466Z,86.1
2018-02-19T23:25:00.449Z,86.3
2018-02-19T23:30:00.466Z,85.7
2018-02-19T23:35:02.856Z,85.8
2018-02-19T23:40:00.560Z,86.5
2018-02-19T23:45:00.479Z,86.3
2018-02-19T23:50:00.678Z,85.9
2018-02-19T23:55:00.462Z,86.4
